Time;durP1;ratioP1;P1;durP2;ratioP2;P2;SDS_P1;SDS_P2;PMS_P1;PMS_P2;Temp;Humidity;BMP_temperature;BMP_pressure;BME280_temperature;BME280_humidity;BME280_pressure;Samples;Min_cycle;Max_cycle;Signal;HPM_P1;HPM_P2
2022/06/30 00:02:05;;;;;;;0.00;0.00;;;;;;;;;;5072565;28;20484;-92
2022/06/30 00:04:31;;;;;;;0.00;0.00;;;;;;;;;;5072429;28;20102;-91
2022/06/30 00:07:00;;;;;;;0.00;0.00;;;;;;;;;;5072672;28;20047;-91
2022/06/30 00:09:26;;;;;;;0.00;0.00;;;;;;;;;;5072357;28;20079;-90
2022/06/30 00:11:59;;;;;;;0.30;0.10;;;;;;;;;;5072509;28;20036;-90
2022/06/30 00:14:25;;;;;;;0.00;0.00;;;;;;;;;;5072275;28;20480;-91
2022/06/30 00:16:53;;;;;;;0.00;0.00;;;;;;;;;;5072324;28;20071;-88
2022/06/30 00:19:20;;;;;;;0.00;0.00;;;;;;;;;;5072007;28;20127;-90
2022/06/30 00:21:46;;;;;;;0.00;0.00;;;;;;;;;;5072124;28;20033;-90
2022/06/30 00:24:14;;;;;;;0.00;0.00;;;;;;;;;;5072280;28;20115;-92
2022/06/30 00:26:40;;;;;;;0.00;0.00;;;;;;;;;;5055193;28;20041;-89
2022/06/30 00:29:06;;;;;;;0.05;0.00;;;;;;;;;;5071687;28;20040;-88
2022/06/30 00:31:32;;;;;;;0.00;0.00;;;;;;;;;;5054928;28;20052;-90
2022/06/30 00:33:58;;;;;;;0.00;0.00;;;;;;;;;;5071531;28;20440;-90
2022/06/30 00:36:24;;;;;;;0.00;0.00;;;;;;;;;;5055451;28;20032;-90
2022/06/30 00:38:53;;;;;;;0.00;0.00;;;;;;;;;;5055311;28;20040;-90
2022/06/30 00:41:19;;;;;;;0.00;0.00;;;;;;;;;;5055314;28;20068;-91
2022/06/30 00:43:45;;;;;;;0.00;0.00;;;;;;;;;;5072475;28;20044;-91
2022/06/30 00:46:11;;;;;;;0.00;0.00;;;;;;;;;;5071987;28;20047;-91
2022/06/30 00:48:39;;;;;;;0.00;0.00;;;;;;;;;;5071695;28;20148;-92
2022/06/30 00:51:05;;;;;;;0.00;0.00;;;;;;;;;;5072150;28;20044;-92
2022/06/30 00:53:35;;;;;;;0.00;0.00;;;;;;;;;;5054949;28;20095;-90
2022/06/30 00:56:02;;;;;;;0.00;0.00;;;;;;;;;;5071820;28;20088;-90
2022/06/30 00:58:34;;;;;;;0.00;0.00;;;;;;;;;;5071806;28;20480;-89
2022/06/30 01:01:01;;;;;;;0.00;0.00;;;;;;;;;;5055292;28;20033;-89
2022/06/30 01:03:27;;;;;;;0.00;0.00;;;;;;;;;;5075542;28;20036;-89
2022/06/30 01:05:54;;;;;;;0.00;0.00;;;;;;;;;;5075363;28;20115;-90
2022/06/30 01:08:20;;;;;;;0.00;0.00;;;;;;;;;;5075625;28;20071;-90
2022/06/30 01:13:40;;;;;;;0.00;0.00;;;;;;;;;;5074969;28;20044;-89
2022/06/30 01:16:06;;;;;;;0.30;0.13;;;;;;;;;;5075235;28;20040;-90
2022/06/30 01:18:35;;;;;;;0.00;0.00;;;;;;;;;;5075047;28;20036;-91
2022/06/30 01:21:01;;;;;;;0.00;0.00;;;;;;;;;;5075365;28;20091;-90
2022/06/30 01:23:27;;;;;;;0.00;0.00;;;;;;;;;;5058445;28;20040;-90
2022/06/30 01:25:53;;;;;;;0.00;0.00;;;;;;;;;;5075139;28;20048;-89
2022/06/30 01:28:19;;;;;;;0.00;0.00;;;;;;;;;;5075267;28;20036;-91
2022/06/30 01:30:45;;;;;;;0.00;0.00;;;;;;;;;;5075329;28;20033;-90
2022/06/30 01:33:11;;;;;;;0.00;0.00;;;;;;;;;;5075231;28;20091;-90
2022/06/30 01:35:38;;;;;;;0.00;0.00;;;;;;;;;;5058076;28;20044;-89
2022/06/30 01:38:04;;;;;;;0.00;0.00;;;;;;;;;;5075009;28;20493;-91
2022/06/30 01:40:33;;;;;;;0.00;0.00;;;;;;;;;;5074989;28;20036;-92
2022/06/30 01:43:02;;;;;;;0.00;0.00;;;;;;;;;;5058335;28;20484;-92
2022/06/30 01:45:30;;;;;;;0.00;0.00;;;;;;;;;;5074691;28;20045;-91
2022/06/30 01:47:56;;;;;;;0.00;0.00;;;;;;;;;;5057785;28;20040;-90
2022/06/30 01:50:30;;;;;;;0.00;0.00;;;;;;;;;;5057860;28;20647;-90
2022/06/30 01:52:57;;;;;;;0.00;0.00;;;;;;;;;;5074360;28;20050;-89
2022/06/30 01:55:24;;;;;;;0.00;0.00;;;;;;;;;;5074321;28;20102;-91
2022/06/30 01:57:53;;;;;;;0.00;0.00;;;;;;;;;;5074581;28;20442;-91
2022/06/30 02:00:20;;;;;;;0.00;0.00;;;;;;;;;;5074234;28;20037;-90
2022/06/30 02:02:48;;;;;;;0.00;0.00;;;;;;;;;;5057962;28;20094;-89
2022/06/30 02:05:14;;;;;;;0.00;0.00;;;;;;;;;;5057657;28;20040;-90
2022/06/30 02:07:41;;;;;;;0.00;0.00;;;;;;;;;;5057657;28;20427;-90
2022/06/30 02:10:08;;;;;;;0.00;0.00;;;;;;;;;;5074289;28;20052;-89
2022/06/30 02:12:46;;;;;;;0.00;0.00;;;;;;;;;;5057258;28;20040;-90
2022/06/30 02:15:14;;;;;;;0.00;0.00;;;;;;;;;;5074025;28;20051;-91
2022/06/30 02:17:41;;;;;;;0.00;0.00;;;;;;;;;;5057309;28;20036;-90
2022/06/30 02:20:09;;;;;;;0.00;0.00;;;;;;;;;;5074252;28;20082;-91
2022/06/30 02:22:35;;;;;;;0.00;0.00;;;;;;;;;;5074001;28;20041;-90
2022/06/30 02:25:01;;;;;;;0.00;0.00;;;;;;;;;;5057173;28;20127;-91
2022/06/30 02:27:27;;;;;;;0.00;0.00;;;;;;;;;;5057129;28;20125;-90
2022/06/30 02:29:53;;;;;;;0.00;0.00;;;;;;;;;;5057275;28;20036;-90
2022/06/30 02:32:19;;;;;;;0.00;0.00;;;;;;;;;;5073564;28;20131;-90
2022/06/30 02:34:45;;;;;;;0.00;0.00;;;;;;;;;;5073774;28;20036;-90
2022/06/30 02:37:11;;;;;;;0.00;0.00;;;;;;;;;;5073744;28;20082;-88
2022/06/30 02:39:38;;;;;;;0.00;0.00;;;;;;;;;;5073752;28;20332;-89
2022/06/30 02:42:04;;;;;;;0.00;0.00;;;;;;;;;;5056744;28;20040;-88
2022/06/30 02:44:30;;;;;;;0.00;0.00;;;;;;;;;;5073285;28;20044;-90
2022/06/30 02:46:56;;;;;;;0.00;0.00;;;;;;;;;;5073365;28;20040;-90
2022/06/30 02:49:22;;;;;;;0.00;0.00;;;;;;;;;;5073326;28;20045;-90
2022/06/30 02:51:49;;;;;;;0.00;0.00;;;;;;;;;;5073132;28;20432;-87
2022/06/30 02:54:15;;;;;;;0.00;0.00;;;;;;;;;;5073003;28;20060;-92
2022/06/30 02:56:41;;;;;;;0.00;0.00;;;;;;;;;;5073162;28;20071;-89
2022/06/30 02:59:08;;;;;;;0.00;0.00;;;;;;;;;;5073234;28;20044;-91
2022/06/30 03:01:34;;;;;;;0.00;0.00;;;;;;;;;;5056603;28;20037;-90
2022/06/30 03:04:01;;;;;;;0.00;0.00;;;;;;;;;;5073029;28;20388;-89
2022/06/30 03:06:28;;;;;;;0.00;0.00;;;;;;;;;;5072976;28;20048;-91
2022/06/30 03:08:55;;;;;;;0.00;0.00;;;;;;;;;;5056656;28;20051;-88
2022/06/30 03:11:21;;;;;;;0.00;0.00;;;;;;;;;;5072929;28;20131;-91
2022/06/30 03:13:47;;;;;;;0.00;0.00;;;;;;;;;;5072776;28;20076;-89
2022/06/30 03:16:13;;;;;;;0.00;0.00;;;;;;;;;;5072620;28;20410;-91
2022/06/30 03:18:40;;;;;;;0.00;0.00;;;;;;;;;;5072738;28;20036;-90
2022/06/30 03:21:06;;;;;;;0.00;0.00;;;;;;;;;;5072902;28;20043;-89
2022/06/30 03:23:32;;;;;;;0.00;0.00;;;;;;;;;;5072339;28;20054;-89
2022/06/30 03:25:58;;;;;;;0.00;0.00;;;;;;;;;;5072395;28;20059;-91
2022/06/30 03:28:24;;;;;;;0.00;0.00;;;;;;;;;;5055990;28;20032;-91
2022/06/30 03:30:50;;;;;;;0.00;0.00;;;;;;;;;;5056009;28;20369;-90
2022/06/30 03:33:17;;;;;;;0.00;0.00;;;;;;;;;;5055855;28;20434;-89
2022/06/30 03:35:43;;;;;;;0.00;0.00;;;;;;;;;;5072542;28;20045;-90
2022/06/30 03:38:09;;;;;;;0.00;0.00;;;;;;;;;;5072434;28;20051;-92
2022/06/30 03:40:35;;;;;;;0.00;0.00;;;;;;;;;;5055822;28;20452;-89
2022/06/30 03:43:04;;;;;;;0.00;0.00;;;;;;;;;;5055871;28;20048;-90
2022/06/30 03:45:30;;;;;;;0.00;0.00;;;;;;;;;;5072514;28;20048;-91
2022/06/30 03:47:59;;;;;;;0.00;0.00;;;;;;;;;;5072386;28;20102;-90
2022/06/30 03:50:25;;;;;;;0.00;0.00;;;;;;;;;;5055829;28;20052;-90
2022/06/30 03:52:52;;;;;;;0.15;0.08;;;;;;;;;;5071999;28;20048;-89
2022/06/30 03:55:19;;;;;;;0.00;0.00;;;;;;;;;;5055484;28;20049;-92
2022/06/30 03:57:45;;;;;;;0.00;0.00;;;;;;;;;;5072185;28;20047;-89
2022/06/30 04:00:11;;;;;;;0.00;0.00;;;;;;;;;;5055562;28;20036;-89
2022/06/30 04:02:37;;;;;;;0.00;0.00;;;;;;;;;;5072160;28;20392;-92
2022/06/30 04:05:04;;;;;;;0.00;0.00;;;;;;;;;;5072490;28;20498;-88
2022/06/30 04:07:30;;;;;;;0.00;0.00;;;;;;;;;;5071956;28;20125;-89
2022/06/30 04:09:56;;;;;;;0.00;0.00;;;;;;;;;;5072087;28;20044;-90
2022/06/30 04:12:22;;;;;;;0.00;0.00;;;;;;;;;;5072112;28;20041;-89
2022/06/30 04:14:48;;;;;;;0.00;0.00;;;;;;;;;;5072198;28;20047;-89
2022/06/30 04:17:14;;;;;;;0.00;0.00;;;;;;;;;;5072329;28;20049;-90
2022/06/30 04:19:40;;;;;;;0.00;0.00;;;;;;;;;;5055906;28;20068;-89
2022/06/30 04:22:06;;;;;;;0.00;0.00;;;;;;;;;;5072169;28;20037;-89
2022/06/30 04:24:32;;;;;;;0.00;0.00;;;;;;;;;;5072008;28;20043;-91
2022/06/30 04:26:58;;;;;;;0.00;0.00;;;;;;;;;;5055349;28;20127;-89
2022/06/30 04:29:24;;;;;;;0.00;0.00;;;;;;;;;;5056592;28;20051;-91
2022/06/30 04:34:35;;;;;;;0.00;0.00;;;;;;;;;;5072155;28;20066;-91
2022/06/30 04:37:01;;;;;;;0.00;0.00;;;;;;;;;;5073955;28;20562;-89
2022/06/30 04:39:27;;;;;;;0.00;0.00;;;;;;;;;;5076067;28;20411;-91
2022/06/30 04:41:53;;;;;;;0.00;0.00;;;;;;;;;;5076165;28;20036;-88
2022/06/30 04:44:19;;;;;;;0.00;0.00;;;;;;;;;;5075837;28;20044;-91
2022/06/30 04:46:47;;;;;;;0.00;0.00;;;;;;;;;;5075847;28;20041;-89
2022/06/30 04:49:13;;;;;;;0.00;0.00;;;;;;;;;;5075671;28;20041;-88
2022/06/30 04:51:39;;;;;;;0.00;0.00;;;;;;;;;;5059415;28;20102;-91
2022/06/30 04:54:05;;;;;;;0.00;0.00;;;;;;;;;;5058733;28;20140;-92
2022/06/30 04:56:31;;;;;;;0.00;0.00;;;;;;;;;;5059409;28;20068;-90
2022/06/30 04:58:58;;;;;;;0.00;0.00;;;;;;;;;;5058776;28;20147;-91
2022/06/30 05:01:24;;;;;;;0.00;0.00;;;;;;;;;;5075560;28;20496;-89
2022/06/30 05:03:50;;;;;;;0.00;0.00;;;;;;;;;;5074922;28;20079;-92
2022/06/30 05:06:16;;;;;;;0.00;0.00;;;;;;;;;;5075310;28;20162;-90
2022/06/30 05:08:42;;;;;;;0.00;0.00;;;;;;;;;;5075060;28;20052;-91
2022/06/30 05:11:08;;;;;;;0.00;0.00;;;;;;;;;;5075655;28;20098;-89
2022/06/30 05:13:34;;;;;;;0.00;0.00;;;;;;;;;;5075069;28;20047;-91
2022/06/30 05:16:03;;;;;;;0.00;0.00;;;;;;;;;;5058650;28;20097;-91
2022/06/30 05:18:29;;;;;;;0.00;0.00;;;;;;;;;;5058267;28;20036;-89
2022/06/30 05:20:55;;;;;;;0.38;0.00;;;;;;;;;;5075098;28;20111;-90
2022/06/30 05:23:21;;;;;;;0.00;0.00;;;;;;;;;;5074896;28;20043;-92
2022/06/30 05:28:35;;;;;;;0.00;0.00;;;;;;;;;;5075109;28;20529;-91
2022/06/30 05:31:01;;;;;;;0.00;0.00;;;;;;;;;;5074958;28;20048;-90
2022/06/30 05:33:27;;;;;;;0.00;0.00;;;;;;;;;;5074644;28;20040;-92
2022/06/30 05:35:54;;;;;;;0.00;0.00;;;;;;;;;;5057909;28;20377;-91
2022/06/30 05:38:20;;;;;;;0.00;0.00;;;;;;;;;;5074556;28;20043;-90
2022/06/30 05:40:46;;;;;;;0.00;0.00;;;;;;;;;;5074593;28;20043;-91
2022/06/30 05:43:13;;;;;;;0.00;0.00;;;;;;;;;;5074260;28;20038;-91
2022/06/30 05:45:40;;;;;;;0.00;0.00;;;;;;;;;;5057452;28;20040;-88
2022/06/30 05:48:06;;;;;;;0.00;0.00;;;;;;;;;;5057393;28;20083;-89
2022/06/30 05:50:32;;;;;;;0.00;0.00;;;;;;;;;;5074721;28;20047;-90
2022/06/30 05:52:58;;;;;;;0.00;0.00;;;;;;;;;;5074227;28;20040;-88
2022/06/30 05:55:24;;;;;;;0.00;0.00;;;;;;;;;;5074276;28;20408;-89
2022/06/30 05:57:51;;;;;;;0.00;0.00;;;;;;;;;;5073850;28;20044;-91
2022/06/30 06:00:18;;;;;;;0.00;0.00;;;;;;;;;;5057786;28;20040;-89
2022/06/30 06:02:44;;;;;;;0.00;0.00;;;;;;;;;;5057347;28;20033;-91
2022/06/30 06:05:11;;;;;;;0.03;0.03;;;;;;;;;;5057375;28;20044;-90
2022/06/30 06:07:37;;;;;;;0.00;0.00;;;;;;;;;;5057374;28;20036;-91
2022/06/30 06:10:03;;;;;;;0.00;0.00;;;;;;;;;;5073987;28;20379;-90
2022/06/30 06:12:32;;;;;;;0.00;0.00;;;;;;;;;;5073946;28;20044;-93
2022/06/30 06:15:01;;;;;;;0.05;0.00;;;;;;;;;;5073884;28;20044;-93
2022/06/30 06:17:29;;;;;;;0.00;0.00;;;;;;;;;;5074503;28;20101;-90
2022/06/30 06:19:55;;;;;;;0.00;0.00;;;;;;;;;;5057810;28;20041;-90
2022/06/30 06:22:21;;;;;;;0.00;0.00;;;;;;;;;;5081912;28;20048;-89
2022/06/30 06:24:47;;;;;;;0.00;0.00;;;;;;;;;;5083878;28;20044;-91
2022/06/30 06:27:13;;;;;;;0.00;0.00;;;;;;;;;;5064098;28;20055;-89
2022/06/30 06:29:39;;;;;;;0.00;0.00;;;;;;;;;;5074849;28;20063;-90
2022/06/30 06:32:05;;;;;;;0.00;0.00;;;;;;;;;;5073909;28;20048;-90
2022/06/30 06:34:31;;;;;;;0.00;0.00;;;;;;;;;;5073381;28;20044;-89
2022/06/30 06:36:57;;;;;;;0.00;0.00;;;;;;;;;;5074466;28;20502;-85
2022/06/30 06:39:23;;;;;;;0.00;0.00;;;;;;;;;;5090693;28;20043;-90
2022/06/30 06:41:49;;;;;;;0.00;0.00;;;;;;;;;;5093773;28;20097;-88
2022/06/30 06:44:15;;;;;;;0.00;0.00;;;;;;;;;;5092745;28;20044;-84
2022/06/30 06:46:41;;;;;;;0.00;0.00;;;;;;;;;;5093139;28;20105;-87
2022/06/30 06:49:08;;;;;;;0.00;0.00;;;;;;;;;;5092680;28;20051;-86
2022/06/30 06:51:34;;;;;;;0.00;0.00;;;;;;;;;;5076017;28;20098;-86
2022/06/30 06:54:01;;;;;;;0.00;0.00;;;;;;;;;;5092819;28;20052;-92
2022/06/30 06:56:27;;;;;;;0.00;0.00;;;;;;;;;;5093790;28;20042;-90
2022/06/30 06:58:56;;;;;;;0.00;0.00;;;;;;;;;;5092719;28;20391;-90
2022/06/30 07:01:22;;;;;;;0.00;0.00;;;;;;;;;;5076204;28;20058;-89
2022/06/30 07:03:48;;;;;;;0.00;0.00;;;;;;;;;;5093105;28;20036;-90
2022/06/30 07:06:14;;;;;;;0.75;0.10;;;;;;;;;;5093205;28;20123;-90
2022/06/30 07:08:40;;;;;;;0.00;0.00;;;;;;;;;;5092036;28;20078;-90
2022/06/30 07:11:07;;;;;;;0.00;0.00;;;;;;;;;;5067682;28;20040;-90
2022/06/30 07:13:35;;;;;;;0.20;0.08;;;;;;;;;;5067432;28;20048;-90
2022/06/30 07:16:01;;;;;;;0.00;0.00;;;;;;;;;;5066783;28;20047;-89
2022/06/30 07:18:27;;;;;;;0.00;0.00;;;;;;;;;;5059705;28;20040;-90
2022/06/30 07:20:53;;;;;;;0.00;0.00;;;;;;;;;;5082175;28;20045;-88
2022/06/30 07:23:20;;;;;;;0.00;0.00;;;;;;;;;;5072520;28;20040;-88
2022/06/30 07:25:46;;;;;;;0.00;0.00;;;;;;;;;;5080492;28;20145;-91
2022/06/30 07:28:12;;;;;;;0.00;0.00;;;;;;;;;;5078083;28;20052;-91
2022/06/30 07:30:38;;;;;;;0.00;0.00;;;;;;;;;;5075893;28;20048;-89
2022/06/30 07:33:04;;;;;;;0.00;0.00;;;;;;;;;;5072368;28;20040;-87
2022/06/30 07:35:30;;;;;;;0.00;0.00;;;;;;;;;;5072658;28;20044;-90
2022/06/30 07:37:56;;;;;;;0.00;0.00;;;;;;;;;;5085432;28;20043;-86
2022/06/30 07:40:22;;;;;;;0.00;0.00;;;;;;;;;;5092350;28;20471;-90
2022/06/30 07:42:48;;;;;;;0.00;0.00;;;;;;;;;;5089841;28;20043;-90
2022/06/30 07:45:14;;;;;;;0.00;0.00;;;;;;;;;;5093607;28;20051;-90
2022/06/30 07:47:41;;;;;;;0.00;0.00;;;;;;;;;;5094951;28;20048;-91
2022/06/30 07:50:07;;;;;;;0.22;0.00;;;;;;;;;;5093542;28;20127;-89
2022/06/30 07:52:34;;;;;;;0.00;0.00;;;;;;;;;;5085891;28;20052;-89
2022/06/30 07:55:00;;;;;;;0.00;0.00;;;;;;;;;;5074302;28;20099;-91
2022/06/30 07:57:27;;;;;;;0.00;0.00;;;;;;;;;;5074397;28;20490;-90
2022/06/30 07:59:53;;;;;;;0.00;0.00;;;;;;;;;;5074117;28;20048;-91
2022/06/30 08:02:19;;;;;;;0.00;0.00;;;;;;;;;;5073854;28;20036;-89
2022/06/30 08:04:45;;;;;;;0.00;0.00;;;;;;;;;;5073524;28;20056;-89
2022/06/30 08:07:11;;;;;;;0.00;0.00;;;;;;;;;;5057371;28;20093;-88
2022/06/30 08:09:37;;;;;;;0.00;0.00;;;;;;;;;;5056327;28;20513;-89
2022/06/30 08:12:04;;;;;;;0.00;0.00;;;;;;;;;;5075963;28;20045;-86
2022/06/30 08:14:30;;;;;;;0.00;0.00;;;;;;;;;;5075296;28;20047;-85
2022/06/30 08:16:56;;;;;;;0.00;0.00;;;;;;;;;;5076542;28;20109;-87
2022/06/30 08:19:22;;;;;;;0.00;0.00;;;;;;;;;;5075336;28;20088;-86
2022/06/30 08:21:48;;;;;;;0.00;0.00;;;;;;;;;;5075589;28;20047;-87
2022/06/30 08:24:14;;;;;;;0.00;0.00;;;;;;;;;;5075230;28;20578;-87
2022/06/30 08:26:40;;;;;;;0.00;0.00;;;;;;;;;;5075346;28;20145;-87
2022/06/30 08:29:08;;;;;;;0.00;0.00;;;;;;;;;;5075476;28;20044;-90
2022/06/30 08:31:35;;;;;;;0.00;0.00;;;;;;;;;;5075792;28;20142;-88
2022/06/30 08:34:01;;;;;;;0.00;0.00;;;;;;;;;;5058502;28;20082;-89
2022/06/30 08:36:27;;;;;;;0.00;0.00;;;;;;;;;;5075519;28;20044;-87
2022/06/30 08:38:53;;;;;;;0.00;0.00;;;;;;;;;;5076815;28;20116;-83
2022/06/30 08:44:05;;;;;;;;;;;;;;;;;;5075784;28;20048;-92
2022/06/30 08:46:31;;;;;;;0.00;0.00;;;;;;;;;;5076895;28;20002;-92
2022/06/30 08:48:58;;;;;;;0.00;0.00;;;;;;;;;;5059825;28;20041;-92
2022/06/30 08:51:27;;;;;;;0.00;0.00;;;;;;;;;;5059327;28;20047;-89
2022/06/30 08:53:56;;;;;;;0.00;0.00;;;;;;;;;;5076494;28;20059;-92
2022/06/30 08:56:23;;;;;;;0.00;0.00;;;;;;;;;;5077936;28;20048;-90
2022/06/30 08:58:51;;;;;;;0.00;0.00;;;;;;;;;;5079181;28;20056;-91
2022/06/30 09:01:18;;;;;;;0.00;0.00;;;;;;;;;;5079187;28;20077;-91
2022/06/30 09:03:44;;;;;;;0.00;0.00;;;;;;;;;;5076281;28;20037;-92
2022/06/30 09:06:10;;;;;;;0.00;0.00;;;;;;;;;;5076049;28;20046;-91
2022/06/30 09:08:36;;;;;;;0.00;0.00;;;;;;;;;;5076094;28;20037;-90
2022/06/30 09:11:04;;;;;;;0.10;0.00;;;;;;;;;;5059237;28;20120;-90
2022/06/30 09:13:43;;;;;;;0.00;0.00;;;;;;;;;;5059192;28;20043;-90
2022/06/30 09:16:09;;;;;;;0.00;0.00;;;;;;;;;;5076721;28;20098;-91
2022/06/30 09:18:35;;;;;;;0.00;0.00;;;;;;;;;;5077086;28;20040;-91
2022/06/30 09:21:08;;;;;;;0.00;0.00;;;;;;;;;;5075574;28;20109;-89
2022/06/30 09:23:36;;;;;;;0.00;0.00;;;;;;;;;;5075778;28;20041;-91
2022/06/30 09:26:03;;;;;;;0.00;0.00;;;;;;;;;;5075924;28;20044;-92
2022/06/30 09:28:39;;;;;;;0.15;0.10;;;;;;;;;;5060426;28;20052;-92
2022/06/30 09:31:05;;;;;;;0.00;0.00;;;;;;;;;;5077512;28;20040;-91
2022/06/30 09:33:35;;;;;;;0.00;0.00;;;;;;;;;;5060671;28;20177;-89
2022/06/30 09:36:21;;;;;;;0.00;0.00;;;;;;;;;;5076832;28;20052;-93
2022/06/30 09:39:00;;;;;;;0.00;0.00;;;;;;;;;;5077346;28;20041;-91
2022/06/30 09:41:27;;;;;;;0.00;0.00;;;;;;;;;;5076566;28;20500;-91
2022/06/30 09:43:53;;;;;;;0.05;0.00;;;;;;;;;;5076164;28;20044;-92
2022/06/30 09:46:19;;;;;;;0.00;0.00;;;;;;;;;;5059994;28;20051;-92
2022/06/30 09:48:45;;;;;;;0.00;0.00;;;;;;;;;;5077215;28;20036;-93
2022/06/30 09:51:12;;;;;;;0.00;0.00;;;;;;;;;;5081161;28;20059;-91
2022/06/30 09:53:38;;;;;;;0.00;0.00;;;;;;;;;;5059641;28;20059;-92
2022/06/30 09:56:16;;;;;;;0.00;0.00;;;;;;;;;;5060594;28;20044;-91
2022/06/30 09:58:43;;;;;;;0.00;0.00;;;;;;;;;;5060234;28;20036;-90
2022/06/30 10:01:10;;;;;;;0.00;0.00;;;;;;;;;;5081549;28;20036;-90
2022/06/30 10:03:47;;;;;;;0.00;0.00;;;;;;;;;;5080604;28;20041;-92
2022/06/30 10:06:14;;;;;;;0.00;0.00;;;;;;;;;;5062342;28;20044;-92
2022/06/30 10:08:40;;;;;;;0.00;0.00;;;;;;;;;;5061477;28;20032;-93
2022/06/30 10:11:07;;;;;;;0.00;0.00;;;;;;;;;;5079867;28;20380;-90
2022/06/30 10:13:37;;;;;;;0.00;0.00;;;;;;;;;;5074601;28;20040;-88
2022/06/30 10:16:04;;;;;;;0.30;0.05;;;;;;;;;;5075709;28;20484;-90
2022/06/30 10:18:30;;;;;;;0.00;0.00;;;;;;;;;;5058464;28;20139;-88
2022/06/30 10:20:58;;;;;;;0.00;0.00;;;;;;;;;;5075256;28;20036;-89
2022/06/30 10:23:24;;;;;;;0.00;0.00;;;;;;;;;;5074064;28;20135;-89
2022/06/30 10:25:52;;;;;;;0.22;0.22;;;;;;;;;;5040056;28;20051;-89
2022/06/30 10:28:19;;;;;;;0.17;0.00;;;;;;;;;;5073751;28;20094;-89
2022/06/30 10:30:47;;;;;;;0.00;0.00;;;;;;;;;;5072948;28;20051;-89
2022/06/30 10:33:18;;;;;;;0.00;0.00;;;;;;;;;;5072603;28;20083;-89
2022/06/30 10:35:51;;;;;;;0.00;0.00;;;;;;;;;;5072180;28;20066;-89
2022/06/30 10:38:20;;;;;;;0.00;0.00;;;;;;;;;;5072830;28;20051;-86
2022/06/30 10:41:04;;;;;;;0.00;0.00;;;;;;;;;;5056103;28;20066;-88
2022/06/30 10:43:30;;;;;;;0.00;0.00;;;;;;;;;;5072900;28;20094;-87
2022/06/30 10:46:00;;;;;;;0.00;0.00;;;;;;;;;;5072432;28;20032;-88
2022/06/30 10:48:28;;;;;;;0.00;0.00;;;;;;;;;;5072711;28;20033;-87
2022/06/30 10:50:56;;;;;;;0.20;0.10;;;;;;;;;;5055997;28;20102;-89
2022/06/30 10:53:42;;;;;;;0.15;0.10;;;;;;;;;;5072685;28;20045;-89
2022/06/30 10:56:09;;;;;;;0.00;0.00;;;;;;;;;;5071973;28;20061;-87
2022/06/30 10:58:35;;;;;;;0.10;0.10;;;;;;;;;;5072742;28;20040;-87
2022/06/30 11:01:27;;;;;;;0.00;0.00;;;;;;;;;;5072409;28;20066;-87
2022/06/30 11:03:54;;;;;;;0.00;0.00;;;;;;;;;;5072014;28;20048;-86
2022/06/30 11:06:21;;;;;;;0.00;0.00;;;;;;;;;;5071996;28;20045;-89
2022/06/30 11:08:49;;;;;;;0.00;0.00;;;;;;;;;;5071205;28;20041;-87
2022/06/30 11:11:21;;;;;;;0.00;0.00;;;;;;;;;;5072257;28;20052;-88
2022/06/30 11:13:47;;;;;;;0.00;0.00;;;;;;;;;;5072098;28;20044;-82
2022/06/30 11:16:14;;;;;;;0.00;0.00;;;;;;;;;;5072177;28;20041;-86
2022/06/30 11:18:40;;;;;;;0.00;0.00;;;;;;;;;;5055487;28;20046;-86
2022/06/30 11:21:06;;;;;;;0.00;0.00;;;;;;;;;;5071812;28;20123;-85
2022/06/30 11:23:40;;;;;;;0.00;0.00;;;;;;;;;;5072028;28;20068;-87
2022/06/30 11:28:53;;;;;;;0.10;0.10;;;;;;;;;;5071881;28;20048;-85
2022/06/30 11:31:23;;;;;;;0.00;0.00;;;;;;;;;;5071567;28;20040;-85
2022/06/30 11:33:53;;;;;;;0.00;0.00;;;;;;;;;;5071983;28;20047;-85
2022/06/30 11:36:19;;;;;;;0.00;0.00;;;;;;;;;;5055152;28;20037;-84
2022/06/30 11:38:51;;;;;;;0.00;0.00;;;;;;;;;;5055034;28;20047;-85
2022/06/30 11:44:07;;;;;;;0.00;0.00;;;;;;;;;;5071833;28;20369;-86
2022/06/30 11:46:34;;;;;;;0.00;0.00;;;;;;;;;;5071136;28;20491;-86
2022/06/30 11:49:04;;;;;;;0.00;0.00;;;;;;;;;;5071638;28;20384;-85
2022/06/30 11:51:30;;;;;;;0.00;0.00;;;;;;;;;;5072493;28;20055;-86
2022/06/30 11:53:56;;;;;;;0.00;0.00;;;;;;;;;;5054597;28;20479;-85
2022/06/30 11:56:23;;;;;;;0.00;0.00;;;;;;;;;;5071477;28;20052;-86
2022/06/30 11:58:49;;;;;;;0.00;0.00;;;;;;;;;;5071631;28;20124;-85
2022/06/30 12:01:16;;;;;;;0.00;0.00;;;;;;;;;;5072625;28;20131;-86
2022/06/30 12:03:43;;;;;;;0.00;0.00;;;;;;;;;;5071552;28;20040;-86
2022/06/30 12:06:10;;;;;;;0.00;0.00;;;;;;;;;;5054612;28;20408;-85
2022/06/30 12:08:36;;;;;;;0.00;0.00;;;;;;;;;;5054859;28;20032;-85
2022/06/30 12:11:02;;;;;;;0.00;0.00;;;;;;;;;;5071436;28;20493;-85
2022/06/30 12:13:29;;;;;;;0.00;0.00;;;;;;;;;;5071237;28;20036;-85
2022/06/30 12:15:55;;;;;;;0.00;0.00;;;;;;;;;;5071572;28;20132;-86
2022/06/30 12:18:24;;;;;;;0.00;0.00;;;;;;;;;;5071260;28;20474;-84
2022/06/30 12:20:50;;;;;;;0.00;0.00;;;;;;;;;;5071347;28;20494;-87
2022/06/30 12:23:17;;;;;;;0.00;0.00;;;;;;;;;;5071382;28;20438;-85
2022/06/30 12:25:43;;;;;;;0.00;0.00;;;;;;;;;;5054699;28;20329;-85
2022/06/30 12:28:09;;;;;;;0.00;0.00;;;;;;;;;;5071439;28;20047;-87
2022/06/30 12:30:36;;;;;;;0.00;0.00;;;;;;;;;;5071229;28;20036;-85
2022/06/30 12:33:03;;;;;;;0.00;0.00;;;;;;;;;;5054253;28;20454;-86
2022/06/30 12:35:32;;;;;;;0.00;0.00;;;;;;;;;;5071366;28;20052;-85
2022/06/30 12:38:08;;;;;;;0.10;0.00;;;;;;;;;;5070987;28;20056;-85
2022/06/30 12:40:37;;;;;;;0.00;0.00;;;;;;;;;;5071132;28;20079;-85
2022/06/30 12:43:03;;;;;;;0.00;0.00;;;;;;;;;;5054102;28;20114;-86
2022/06/30 12:45:46;;;;;;;0.00;0.00;;;;;;;;;;5071066;28;20080;-84
2022/06/30 12:48:13;;;;;;;0.00;0.00;;;;;;;;;;5071198;28;20102;-85
2022/06/30 12:50:41;;;;;;;0.00;0.00;;;;;;;;;;5071039;28;20357;-85
2022/06/30 12:53:20;;;;;;;0.00;0.00;;;;;;;;;;5070891;28;20475;-85
2022/06/30 12:55:57;;;;;;;0.28;0.00;;;;;;;;;;5054279;28;20040;-86
2022/06/30 12:58:23;;;;;;;0.00;0.00;;;;;;;;;;5056785;28;20071;-85
2022/06/30 13:00:49;;;;;;;0.00;0.00;;;;;;;;;;5074579;28;20048;-85
2022/06/30 13:03:15;;;;;;;0.00;0.00;;;;;;;;;;5074465;28;20400;-86
2022/06/30 13:05:41;;;;;;;0.00;0.00;;;;;;;;;;5074508;28;20403;-85
2022/06/30 13:08:07;;;;;;;0.00;0.00;;;;;;;;;;5074339;28;20131;-84
2022/06/30 13:13:18;;;;;;;0.00;0.00;;;;;;;;;;5074336;28;20049;-86
2022/06/30 13:15:44;;;;;;;0.00;0.00;;;;;;;;;;5074218;28;20094;-84
2022/06/30 13:18:10;;;;;;;0.00;0.00;;;;;;;;;;5074154;28;20051;-85
2022/06/30 13:20:36;;;;;;;0.00;0.00;;;;;;;;;;5074273;28;20040;-85
2022/06/30 13:23:02;;;;;;;0.00;0.00;;;;;;;;;;5074181;28;20086;-86
2022/06/30 13:25:29;;;;;;;0.00;0.00;;;;;;;;;;5057484;28;20074;-85
2022/06/30 13:27:54;;;;;;;0.00;0.00;;;;;;;;;;5073816;28;20040;-84
2022/06/30 13:30:20;;;;;;;0.00;0.00;;;;;;;;;;5074263;28;20044;-85
2022/06/30 13:32:46;;;;;;;0.30;0.10;;;;;;;;;;5073897;28;20089;-85
2022/06/30 13:35:12;;;;;;;0.00;0.00;;;;;;;;;;5073980;28;20064;-85
2022/06/30 13:37:38;;;;;;;0.00;0.00;;;;;;;;;;5073800;28;20178;-85
2022/06/30 13:40:04;;;;;;;0.00;0.00;;;;;;;;;;5073848;28;20041;-84
2022/06/30 13:42:30;;;;;;;0.00;0.00;;;;;;;;;;5073781;28;20076;-85
2022/06/30 13:44:56;;;;;;;0.00;0.00;;;;;;;;;;5057060;28;20133;-85
2022/06/30 13:47:22;;;;;;;0.00;0.00;;;;;;;;;;5074250;28;20076;-86
2022/06/30 13:49:48;;;;;;;0.00;0.00;;;;;;;;;;5073674;28;20137;-86
2022/06/30 13:52:14;;;;;;;0.00;0.00;;;;;;;;;;5073596;28;20044;-85
2022/06/30 13:54:40;;;;;;;0.00;0.00;;;;;;;;;;5073657;28;20082;-86
2022/06/30 13:57:07;;;;;;;0.00;0.00;;;;;;;;;;5073555;28;20044;-85
2022/06/30 13:59:33;;;;;;;0.00;0.00;;;;;;;;;;5073405;28;20090;-87
2022/06/30 14:02:00;;;;;;;0.10;0.10;;;;;;;;;;5057041;28;20547;-86
2022/06/30 14:04:26;;;;;;;0.05;0.00;;;;;;;;;;5056496;28;20127;-85
2022/06/30 14:06:52;;;;;;;0.00;0.00;;;;;;;;;;5073594;28;20075;-85
2022/06/30 14:09:18;;;;;;;0.00;0.00;;;;;;;;;;5056533;28;20503;-84
2022/06/30 14:11:47;;;;;;;0.00;0.00;;;;;;;;;;5073305;28;20540;-85
2022/06/30 14:14:13;;;;;;;0.15;0.15;;;;;;;;;;5056386;28;20049;-87
2022/06/30 14:16:39;;;;;;;0.05;0.05;;;;;;;;;;5073541;28;20044;-85
2022/06/30 14:19:05;;;;;;;0.15;0.00;;;;;;;;;;5073028;28;20040;-87
2022/06/30 14:21:32;;;;;;;0.00;0.00;;;;;;;;;;5073223;28;20601;-86
2022/06/30 14:23:58;;;;;;;0.00;0.00;;;;;;;;;;5056326;28;20040;-85
2022/06/30 14:26:26;;;;;;;0.00;0.00;;;;;;;;;;5073096;28;20036;-85
2022/06/30 14:28:52;;;;;;;0.00;0.00;;;;;;;;;;5056376;28;20044;-86
2022/06/30 14:31:18;;;;;;;0.00;0.00;;;;;;;;;;5073012;28;20484;-85
2022/06/30 14:33:44;;;;;;;0.00;0.00;;;;;;;;;;5072655;28;20037;-85
2022/06/30 14:36:10;;;;;;;0.00;0.00;;;;;;;;;;5073087;28;20036;-85
2022/06/30 14:38:37;;;;;;;1.13;0.25;;;;;;;;;;5055882;28;20040;-86
2022/06/30 14:41:03;;;;;;;0.20;0.00;;;;;;;;;;5072747;28;20258;-86
2022/06/30 14:43:29;;;;;;;0.50;0.30;;;;;;;;;;5072375;28;20075;-86
2022/06/30 14:45:55;;;;;;;0.00;0.00;;;;;;;;;;5072765;28;20040;-85
2022/06/30 14:48:22;;;;;;;0.08;0.03;;;;;;;;;;5072645;28;20037;-86
2022/06/30 14:50:48;;;;;;;0.00;0.00;;;;;;;;;;5072627;28;20467;-84
2022/06/30 14:53:14;;;;;;;0.00;0.00;;;;;;;;;;5072297;28;20135;-85
2022/06/30 14:55:40;;;;;;;0.30;0.10;;;;;;;;;;5072364;28;20178;-85
2022/06/30 14:58:06;;;;;;;0.00;0.00;;;;;;;;;;5073493;28;20388;-86
2022/06/30 15:00:34;;;;;;;0.15;0.15;;;;;;;;;;5055892;28;20040;-85
2022/06/30 15:02:59;;;;;;;0.30;0.28;;;;;;;;;;5072030;28;20080;-85